sensor_id;sensor_type;location;lat;lon;timestamp;temperature;humidity
41904;DHT22;27586;51.124;4.182;2023-08-06T00:00:24;15.80;99.90
41904;DHT22;27586;51.124;4.182;2023-08-06T00:02:49;15.70;99.90
41904;DHT22;27586;51.124;4.182;2023-08-06T00:05:15;15.80;99.90
41904;DHT22;27586;51.124;4.182;2023-08-06T00:07:44;15.80;99.90
41904;DHT22;27586;51.124;4.182;2023-08-06T00:10:10;15.80;99.90
41904;DHT22;27586;51.124;4.182;2023-08-06T00:12:36;15.80;99.90
41904;DHT22;27586;51.124;4.182;2023-08-06T00:15:02;15.90;99.90
41904;DHT22;27586;51.124;4.182;2023-08-06T00:17:28;15.90;99.90
41904;DHT22;27586;51.124;4.182;2023-08-06T00:19:53;15.90;99.90
41904;DHT22;27586;51.124;4.182;2023-08-06T00:22:19;16.00;99.90
41904;DHT22;27586;51.124;4.182;2023-08-06T00:24:45;16.00;99.90
41904;DHT22;27586;51.124;4.182;2023-08-06T00:27:10;15.90;99.90
41904;DHT22;27586;51.124;4.182;2023-08-06T00:29:36;16.00;99.90
41904;DHT22;27586;51.124;4.182;2023-08-06T00:32:01;16.00;99.90
41904;DHT22;27586;51.124;4.182;2023-08-06T00:34:27;15.90;99.90
41904;DHT22;27586;51.124;4.182;2023-08-06T00:36:53;15.90;99.90
41904;DHT22;27586;51.124;4.182;2023-08-06T00:39:19;15.90;99.90
41904;DHT22;27586;51.124;4.182;2023-08-06T00:41:45;16.00;99.90
41904;DHT22;27586;51.124;4.182;2023-08-06T00:44:10;16.00;99.90
41904;DHT22;27586;51.124;4.182;2023-08-06T00:46:36;16.00;99.90
41904;DHT22;27586;51.124;4.182;2023-08-06T00:49:02;16.00;99.90
41904;DHT22;27586;51.124;4.182;2023-08-06T00:51:28;16.00;99.90
41904;DHT22;27586;51.124;4.182;2023-08-06T00:53:54;15.90;99.90
41904;DHT22;27586;51.124;4.182;2023-08-06T00:56:20;16.00;99.90
41904;DHT22;27586;51.124;4.182;2023-08-06T00:58:46;16.10;99.90
41904;DHT22;27586;51.124;4.182;2023-08-06T01:01:12;16.00;99.90
41904;DHT22;27586;51.124;4.182;2023-08-06T01:03:38;16.10;99.90
41904;DHT22;27586;51.124;4.182;2023-08-06T01:06:04;16.00;99.90
41904;DHT22;27586;51.124;4.182;2023-08-06T01:08:56;16.00;99.90
41904;DHT22;27586;51.124;4.182;2023-08-06T01:12:06;16.00;99.90
41904;DHT22;27586;51.124;4.182;2023-08-06T01:14:48;15.90;99.90
41904;DHT22;27586;51.124;4.182;2023-08-06T01:17:16;16.00;99.90
41904;DHT22;27586;51.124;4.182;2023-08-06T01:19:42;16.00;99.90
41904;DHT22;27586;51.124;4.182;2023-08-06T01:22:07;16.00;99.90
41904;DHT22;27586;51.124;4.182;2023-08-06T01:24:33;16.00;99.90
41904;DHT22;27586;51.124;4.182;2023-08-06T01:27:37;15.90;99.90
41904;DHT22;27586;51.124;4.182;2023-08-06T01:30:12;16.00;99.90
41904;DHT22;27586;51.124;4.182;2023-08-06T01:32:43;15.80;99.90
41904;DHT22;27586;51.124;4.182;2023-08-06T01:35:10;15.70;99.90
41904;DHT22;27586;51.124;4.182;2023-08-06T01:37:37;15.80;99.90
41904;DHT22;27586;51.124;4.182;2023-08-06T01:40:10;15.90;99.90
41904;DHT22;27586;51.124;4.182;2023-08-06T01:42:37;16.00;99.90
41904;DHT22;27586;51.124;4.182;2023-08-06T01:45:03;15.90;99.90
41904;DHT22;27586;51.124;4.182;2023-08-06T01:47:29;15.90;99.90
41904;DHT22;27586;51.124;4.182;2023-08-06T01:49:54;15.90;99.90
41904;DHT22;27586;51.124;4.182;2023-08-06T01:52:20;15.80;99.90
41904;DHT22;27586;51.124;4.182;2023-08-06T01:54:46;15.90;99.90
41904;DHT22;27586;51.124;4.182;2023-08-06T01:57:12;16.00;99.90
41904;DHT22;27586;51.124;4.182;2023-08-06T01:59:37;16.00;99.90
41904;DHT22;27586;51.124;4.182;2023-08-06T02:02:03;16.00;99.90
41904;DHT22;27586;51.124;4.182;2023-08-06T02:04:29;15.90;99.90
41904;DHT22;27586;51.124;4.182;2023-08-06T02:06:54;15.90;99.90
41904;DHT22;27586;51.124;4.182;2023-08-06T02:09:20;15.90;99.90
41904;DHT22;27586;51.124;4.182;2023-08-06T02:11:45;15.90;99.90
41904;DHT22;27586;51.124;4.182;2023-08-06T02:14:11;16.00;99.90
41904;DHT22;27586;51.124;4.182;2023-08-06T02:16:37;15.90;99.90
41904;DHT22;27586;51.124;4.182;2023-08-06T02:19:03;15.80;99.90
41904;DHT22;27586;51.124;4.182;2023-08-06T02:21:28;15.80;99.90
41904;DHT22;27586;51.124;4.182;2023-08-06T02:23:54;15.80;99.90
41904;DHT22;27586;51.124;4.182;2023-08-06T02:26:20;15.80;99.90
41904;DHT22;27586;51.124;4.182;2023-08-06T02:28:46;15.90;99.90
41904;DHT22;27586;51.124;4.182;2023-08-06T02:31:11;15.70;99.90
41904;DHT22;27586;51.124;4.182;2023-08-06T02:33:37;15.80;99.90
41904;DHT22;27586;51.124;4.182;2023-08-06T02:36:03;15.80;99.90
41904;DHT22;27586;51.124;4.182;2023-08-06T02:38:30;15.80;99.90
41904;DHT22;27586;51.124;4.182;2023-08-06T02:40:56;15.80;99.90
41904;DHT22;27586;51.124;4.182;2023-08-06T02:43:21;15.80;99.90
41904;DHT22;27586;51.124;4.182;2023-08-06T02:45:47;15.90;99.90
41904;DHT22;27586;51.124;4.182;2023-08-06T02:48:13;15.90;99.90
41904;DHT22;27586;51.124;4.182;2023-08-06T02:50:41;16.00;99.90
41904;DHT22;27586;51.124;4.182;2023-08-06T02:53:08;16.10;99.90
41904;DHT22;27586;51.124;4.182;2023-08-06T02:55:34;16.10;99.90
41904;DHT22;27586;51.124;4.182;2023-08-06T02:58:01;16.00;99.90
41904;DHT22;27586;51.124;4.182;2023-08-06T03:00:27;15.90;99.90
41904;DHT22;27586;51.124;4.182;2023-08-06T03:02:53;15.80;99.90
41904;DHT22;27586;51.124;4.182;2023-08-06T03:05:19;15.80;99.90
41904;DHT22;27586;51.124;4.182;2023-08-06T03:07:44;15.70;99.90
41904;DHT22;27586;51.124;4.182;2023-08-06T03:10:10;15.70;99.90
41904;DHT22;27586;51.124;4.182;2023-08-06T03:12:36;15.70;99.90
41904;DHT22;27586;51.124;4.182;2023-08-06T03:15:02;15.70;99.90
41904;DHT22;27586;51.124;4.182;2023-08-06T03:17:27;15.60;99.90
41904;DHT22;27586;51.124;4.182;2023-08-06T03:19:53;15.60;99.90
41904;DHT22;27586;51.124;4.182;2023-08-06T03:22:18;15.60;99.90
41904;DHT22;27586;51.124;4.182;2023-08-06T03:24:44;15.60;99.90
41904;DHT22;27586;51.124;4.182;2023-08-06T03:27:10;15.50;99.90
41904;DHT22;27586;51.124;4.182;2023-08-06T03:29:35;15.40;99.90
41904;DHT22;27586;51.124;4.182;2023-08-06T03:32:01;15.30;99.90
41904;DHT22;27586;51.124;4.182;2023-08-06T03:34:27;15.20;99.90
41904;DHT22;27586;51.124;4.182;2023-08-06T03:36:53;15.10;99.90
41904;DHT22;27586;51.124;4.182;2023-08-06T03:39:19;15.10;99.90
41904;DHT22;27586;51.124;4.182;2023-08-06T03:41:44;15.20;99.90
41904;DHT22;27586;51.124;4.182;2023-08-06T03:44:10;15.10;99.90
41904;DHT22;27586;51.124;4.182;2023-08-06T03:46:35;15.10;99.90
41904;DHT22;27586;51.124;4.182;2023-08-06T03:49:01;15.10;99.90
41904;DHT22;27586;51.124;4.182;2023-08-06T03:51:27;15.10;99.90
41904;DHT22;27586;51.124;4.182;2023-08-06T03:53:52;15.00;99.90
41904;DHT22;27586;51.124;4.182;2023-08-06T03:56:18;14.90;99.90
41904;DHT22;27586;51.124;4.182;2023-08-06T03:58:44;14.70;99.90
41904;DHT22;27586;51.124;4.182;2023-08-06T04:01:09;14.70;99.90
41904;DHT22;27586;51.124;4.182;2023-08-06T04:03:35;14.70;99.90
41904;DHT22;27586;51.124;4.182;2023-08-06T04:06:02;14.60;99.90
41904;DHT22;27586;51.124;4.182;2023-08-06T04:08:28;14.50;99.90
41904;DHT22;27586;51.124;4.182;2023-08-06T04:10:54;14.30;99.90
41904;DHT22;27586;51.124;4.182;2023-08-06T04:13:20;14.10;99.90
41904;DHT22;27586;51.124;4.182;2023-08-06T04:15:45;14.10;99.90
41904;DHT22;27586;51.124;4.182;2023-08-06T04:18:11;14.00;99.90
41904;DHT22;27586;51.124;4.182;2023-08-06T04:20:46;13.90;99.90
41904;DHT22;27586;51.124;4.182;2023-08-06T04:23:14;13.90;99.90
41904;DHT22;27586;51.124;4.182;2023-08-06T04:25:40;13.80;99.90
41904;DHT22;27586;51.124;4.182;2023-08-06T04:28:06;13.80;99.90
41904;DHT22;27586;51.124;4.182;2023-08-06T04:30:32;13.80;99.90
41904;DHT22;27586;51.124;4.182;2023-08-06T04:32:57;13.80;99.90
41904;DHT22;27586;51.124;4.182;2023-08-06T04:35:23;13.80;99.90
41904;DHT22;27586;51.124;4.182;2023-08-06T04:37:49;13.80;99.90
41904;DHT22;27586;51.124;4.182;2023-08-06T04:40:15;13.80;99.90
41904;DHT22;27586;51.124;4.182;2023-08-06T04:42:40;13.80;99.90
41904;DHT22;27586;51.124;4.182;2023-08-06T04:45:06;13.90;99.90
41904;DHT22;27586;51.124;4.182;2023-08-06T04:47:32;13.90;99.90
41904;DHT22;27586;51.124;4.182;2023-08-06T04:49:58;14.00;99.90
41904;DHT22;27586;51.124;4.182;2023-08-06T04:52:23;14.00;99.90
41904;DHT22;27586;51.124;4.182;2023-08-06T04:54:53;14.10;99.90
41904;DHT22;27586;51.124;4.182;2023-08-06T04:57:18;14.10;99.90
41904;DHT22;27586;51.124;4.182;2023-08-06T04:59:44;14.10;99.90
41904;DHT22;27586;51.124;4.182;2023-08-06T05:02:09;14.20;99.90
41904;DHT22;27586;51.124;4.182;2023-08-06T05:04:35;14.30;99.90
41904;DHT22;27586;51.124;4.182;2023-08-06T05:07:01;14.30;99.90
41904;DHT22;27586;51.124;4.182;2023-08-06T05:09:26;14.30;99.90
41904;DHT22;27586;51.124;4.182;2023-08-06T05:11:52;14.40;99.90
41904;DHT22;27586;51.124;4.182;2023-08-06T05:14:17;14.40;99.90
41904;DHT22;27586;51.124;4.182;2023-08-06T05:16:43;14.40;99.90
41904;DHT22;27586;51.124;4.182;2023-08-06T05:19:09;14.40;99.90
41904;DHT22;27586;51.124;4.182;2023-08-06T05:21:34;14.40;99.90
41904;DHT22;27586;51.124;4.182;2023-08-06T05:24:00;14.40;99.90
41904;DHT22;27586;51.124;4.182;2023-08-06T05:26:25;14.50;99.90
41904;DHT22;27586;51.124;4.182;2023-08-06T05:28:51;14.60;99.90
41904;DHT22;27586;51.124;4.182;2023-08-06T05:31:16;14.60;99.90
41904;DHT22;27586;51.124;4.182;2023-08-06T05:33:42;14.60;99.90
41904;DHT22;27586;51.124;4.182;2023-08-06T05:36:08;14.50;99.90
41904;DHT22;27586;51.124;4.182;2023-08-06T05:38:33;14.40;99.90
41904;DHT22;27586;51.124;4.182;2023-08-06T05:40:59;14.40;99.90
41904;DHT22;27586;51.124;4.182;2023-08-06T05:43:25;14.30;99.90
41904;DHT22;27586;51.124;4.182;2023-08-06T05:45:50;14.40;99.90
41904;DHT22;27586;51.124;4.182;2023-08-06T05:48:16;14.40;99.90
41904;DHT22;27586;51.124;4.182;2023-08-06T05:50:42;14.40;99.90
41904;DHT22;27586;51.124;4.182;2023-08-06T05:53:08;14.40;99.90
41904;DHT22;27586;51.124;4.182;2023-08-06T05:55:34;14.40;99.90
41904;DHT22;27586;51.124;4.182;2023-08-06T05:58:00;14.40;99.90
41904;DHT22;27586;51.124;4.182;2023-08-06T06:00:25;14.30;99.90
41904;DHT22;27586;51.124;4.182;2023-08-06T06:02:51;14.30;99.90
41904;DHT22;27586;51.124;4.182;2023-08-06T06:05:17;14.30;99.90
41904;DHT22;27586;51.124;4.182;2023-08-06T06:07:42;14.40;99.90
41904;DHT22;27586;51.124;4.182;2023-08-06T06:10:08;14.40;99.90
41904;DHT22;27586;51.124;4.182;2023-08-06T06:12:34;14.40;99.90
41904;DHT22;27586;51.124;4.182;2023-08-06T06:14:59;14.50;99.90
41904;DHT22;27586;51.124;4.182;2023-08-06T06:17:27;14.40;99.90
41904;DHT22;27586;51.124;4.182;2023-08-06T06:19:52;14.40;99.90
41904;DHT22;27586;51.124;4.182;2023-08-06T06:22:18;14.40;99.90
41904;DHT22;27586;51.124;4.182;2023-08-06T06:24:44;14.50;99.90
41904;DHT22;27586;51.124;4.182;2023-08-06T06:27:09;14.50;99.90
41904;DHT22;27586;51.124;4.182;2023-08-06T06:29:35;14.60;99.90
41904;DHT22;27586;51.124;4.182;2023-08-06T06:32:00;14.70;99.90
41904;DHT22;27586;51.124;4.182;2023-08-06T06:34:26;14.70;99.90
41904;DHT22;27586;51.124;4.182;2023-08-06T06:36:52;14.80;99.90
41904;DHT22;27586;51.124;4.182;2023-08-06T06:39:17;14.90;99.90
41904;DHT22;27586;51.124;4.182;2023-08-06T06:41:43;14.90;99.90
41904;DHT22;27586;51.124;4.182;2023-08-06T06:44:09;15.00;99.90
41904;DHT22;27586;51.124;4.182;2023-08-06T06:46:35;15.00;99.90
41904;DHT22;27586;51.124;4.182;2023-08-06T06:49:00;15.00;99.90
41904;DHT22;27586;51.124;4.182;2023-08-06T06:51:26;15.10;99.90
41904;DHT22;27586;51.124;4.182;2023-08-06T06:53:52;15.10;99.90
41904;DHT22;27586;51.124;4.182;2023-08-06T06:56:17;15.10;99.90
41904;DHT22;27586;51.124;4.182;2023-08-06T06:58:43;15.00;99.90
41904;DHT22;27586;51.124;4.182;2023-08-06T07:01:09;14.90;99.90
41904;DHT22;27586;51.124;4.182;2023-08-06T07:03:37;15.10;99.90
41904;DHT22;27586;51.124;4.182;2023-08-06T07:06:03;15.10;99.90
41904;DHT22;27586;51.124;4.182;2023-08-06T07:08:29;15.10;99.90
41904;DHT22;27586;51.124;4.182;2023-08-06T07:13:27;14.90;99.90
41904;DHT22;27586;51.124;4.182;2023-08-06T07:15:54;15.00;99.90
41904;DHT22;27586;51.124;4.182;2023-08-06T07:18:20;15.10;99.90
41904;DHT22;27586;51.124;4.182;2023-08-06T07:20:52;15.00;99.90
41904;DHT22;27586;51.124;4.182;2023-08-06T07:23:20;15.10;99.90
41904;DHT22;27586;51.124;4.182;2023-08-06T07:25:47;15.10;99.90
41904;DHT22;27586;51.124;4.182;2023-08-06T07:28:13;15.10;99.90
41904;DHT22;27586;51.124;4.182;2023-08-06T07:30:39;15.10;99.90
41904;DHT22;27586;51.124;4.182;2023-08-06T07:33:05;15.20;99.90
41904;DHT22;27586;51.124;4.182;2023-08-06T07:35:31;15.20;99.90
41904;DHT22;27586;51.124;4.182;2023-08-06T07:37:57;15.20;99.90
41904;DHT22;27586;51.124;4.182;2023-08-06T07:40:23;15.20;99.90
41904;DHT22;27586;51.124;4.182;2023-08-06T07:42:48;15.20;99.90
41904;DHT22;27586;51.124;4.182;2023-08-06T07:45:14;15.20;99.90
41904;DHT22;27586;51.124;4.182;2023-08-06T07:47:40;15.30;99.90
41904;DHT22;27586;51.124;4.182;2023-08-06T07:50:06;15.30;99.90
41904;DHT22;27586;51.124;4.182;2023-08-06T07:52:32;15.30;99.90
41904;DHT22;27586;51.124;4.182;2023-08-06T07:54:58;15.20;99.90
41904;DHT22;27586;51.124;4.182;2023-08-06T07:57:24;15.10;99.90
41904;DHT22;27586;51.124;4.182;2023-08-06T07:59:50;15.20;99.90
41904;DHT22;27586;51.124;4.182;2023-08-06T08:02:15;15.30;99.90
41904;DHT22;27586;51.124;4.182;2023-08-06T08:04:41;15.30;99.90
41904;DHT22;27586;51.124;4.182;2023-08-06T08:07:09;15.30;99.90
41904;DHT22;27586;51.124;4.182;2023-08-06T08:09:35;15.40;99.90
41904;DHT22;27586;51.124;4.182;2023-08-06T08:12:01;15.50;99.90
41904;DHT22;27586;51.124;4.182;2023-08-06T08:14:28;15.50;99.90
41904;DHT22;27586;51.124;4.182;2023-08-06T08:16:54;15.60;99.90
41904;DHT22;27586;51.124;4.182;2023-08-06T08:19:20;15.50;99.90
41904;DHT22;27586;51.124;4.182;2023-08-06T08:21:46;15.50;99.90
41904;DHT22;27586;51.124;4.182;2023-08-06T08:24:12;15.50;99.90
41904;DHT22;27586;51.124;4.182;2023-08-06T08:26:38;15.50;99.90
41904;DHT22;27586;51.124;4.182;2023-08-06T08:29:03;15.50;99.90
41904;DHT22;27586;51.124;4.182;2023-08-06T08:31:29;15.50;99.90
41904;DHT22;27586;51.124;4.182;2023-08-06T08:33:55;15.50;99.90
41904;DHT22;27586;51.124;4.182;2023-08-06T08:36:20;15.50;99.90
41904;DHT22;27586;51.124;4.182;2023-08-06T08:38:46;15.60;99.90
41904;DHT22;27586;51.124;4.182;2023-08-06T08:41:12;15.50;99.90
41904;DHT22;27586;51.124;4.182;2023-08-06T08:43:38;15.40;99.90
41904;DHT22;27586;51.124;4.182;2023-08-06T08:46:06;15.40;99.90
41904;DHT22;27586;51.124;4.182;2023-08-06T08:48:34;15.40;99.90
41904;DHT22;27586;51.124;4.182;2023-08-06T08:51:00;15.30;99.90
41904;DHT22;27586;51.124;4.182;2023-08-06T08:53:26;15.50;99.90
41904;DHT22;27586;51.124;4.182;2023-08-06T08:55:53;15.50;99.90
41904;DHT22;27586;51.124;4.182;2023-08-06T08:58:19;15.50;99.90
41904;DHT22;27586;51.124;4.182;2023-08-06T09:00:48;15.60;99.90
41904;DHT22;27586;51.124;4.182;2023-08-06T09:03:16;15.60;99.90
41904;DHT22;27586;51.124;4.182;2023-08-06T09:05:44;15.70;99.90
41904;DHT22;27586;51.124;4.182;2023-08-06T09:08:14;15.70;99.90
41904;DHT22;27586;51.124;4.182;2023-08-06T09:10:43;15.70;99.90
41904;DHT22;27586;51.124;4.182;2023-08-06T09:13:08;15.70;99.90
41904;DHT22;27586;51.124;4.182;2023-08-06T09:15:34;15.80;99.90
41904;DHT22;27586;51.124;4.182;2023-08-06T09:18:00;15.70;99.90
41904;DHT22;27586;51.124;4.182;2023-08-06T09:20:34;15.80;99.90
41904;DHT22;27586;51.124;4.182;2023-08-06T09:23:07;15.70;99.90
41904;DHT22;27586;51.124;4.182;2023-08-06T09:25:33;15.80;99.90
41904;DHT22;27586;51.124;4.182;2023-08-06T09:28:00;15.70;99.90
41904;DHT22;27586;51.124;4.182;2023-08-06T09:30:32;15.70;99.90
41904;DHT22;27586;51.124;4.182;2023-08-06T09:32:58;15.80;99.90
41904;DHT22;27586;51.124;4.182;2023-08-06T09:35:24;15.80;99.90
41904;DHT22;27586;51.124;4.182;2023-08-06T09:37:50;15.80;99.90
41904;DHT22;27586;51.124;4.182;2023-08-06T09:40:26;15.70;99.90
41904;DHT22;27586;51.124;4.182;2023-08-06T09:42:52;15.60;99.90
41904;DHT22;27586;51.124;4.182;2023-08-06T09:45:18;15.60;99.90
41904;DHT22;27586;51.124;4.182;2023-08-06T09:47:43;15.60;99.90
41904;DHT22;27586;51.124;4.182;2023-08-06T09:50:19;15.50;99.90
41904;DHT22;27586;51.124;4.182;2023-08-06T09:52:47;15.50;99.90
41904;DHT22;27586;51.124;4.182;2023-08-06T09:55:13;15.60;99.90
41904;DHT22;27586;51.124;4.182;2023-08-06T09:57:40;15.60;99.90
41904;DHT22;27586;51.124;4.182;2023-08-06T10:00:08;15.50;99.90
41904;DHT22;27586;51.124;4.182;2023-08-06T10:02:37;15.50;99.90
41904;DHT22;27586;51.124;4.182;2023-08-06T10:05:03;15.50;99.90
41904;DHT22;27586;51.124;4.182;2023-08-06T10:07:30;15.40;99.90
41904;DHT22;27586;51.124;4.182;2023-08-06T10:09:56;15.40;99.90
41904;DHT22;27586;51.124;4.182;2023-08-06T10:12:22;15.40;99.90
41904;DHT22;27586;51.124;4.182;2023-08-06T10:14:52;15.30;99.90
41904;DHT22;27586;51.124;4.182;2023-08-06T10:17:21;15.20;99.90
41904;DHT22;27586;51.124;4.182;2023-08-06T10:19:48;15.20;99.90
41904;DHT22;27586;51.124;4.182;2023-08-06T10:22:16;15.20;99.90
41904;DHT22;27586;51.124;4.182;2023-08-06T10:25:02;15.20;99.90
41904;DHT22;27586;51.124;4.182;2023-08-06T10:27:54;15.20;99.90
41904;DHT22;27586;51.124;4.182;2023-08-06T10:30:27;15.30;99.90
41904;DHT22;27586;51.124;4.182;2023-08-06T10:33:00;15.30;99.90
41904;DHT22;27586;51.124;4.182;2023-08-06T10:35:31;15.30;99.90
41904;DHT22;27586;51.124;4.182;2023-08-06T10:38:10;15.30;99.90
41904;DHT22;27586;51.124;4.182;2023-08-06T10:40:39;15.20;99.90
41904;DHT22;27586;51.124;4.182;2023-08-06T10:43:05;15.20;99.90
41904;DHT22;27586;51.124;4.182;2023-08-06T10:45:37;15.20;99.90
41904;DHT22;27586;51.124;4.182;2023-08-06T10:48:03;15.20;99.90
41904;DHT22;27586;51.124;4.182;2023-08-06T10:50:30;15.20;99.90
41904;DHT22;27586;51.124;4.182;2023-08-06T10:52:57;15.40;99.90
41904;DHT22;27586;51.124;4.182;2023-08-06T10:55:27;15.20;99.90
41904;DHT22;27586;51.124;4.182;2023-08-06T10:57:53;15.20;99.90
41904;DHT22;27586;51.124;4.182;2023-08-06T11:00:21;15.20;99.90
41904;DHT22;27586;51.124;4.182;2023-08-06T11:02:48;15.30;99.90
41904;DHT22;27586;51.124;4.182;2023-08-06T11:05:17;15.30;99.90
41904;DHT22;27586;51.124;4.182;2023-08-06T11:07:43;15.30;99.90
41904;DHT22;27586;51.124;4.182;2023-08-06T11:10:10;15.20;99.90
41904;DHT22;27586;51.124;4.182;2023-08-06T11:12:36;15.10;99.90
41904;DHT22;27586;51.124;4.182;2023-08-06T11:15:02;15.00;99.90
41904;DHT22;27586;51.124;4.182;2023-08-06T11:17:30;15.00;99.90
41904;DHT22;27586;51.124;4.182;2023-08-06T11:19:58;15.10;99.90
41904;DHT22;27586;51.124;4.182;2023-08-06T11:22:24;15.10;99.90
41904;DHT22;27586;51.124;4.182;2023-08-06T11:24:50;15.10;99.90
41904;DHT22;27586;51.124;4.182;2023-08-06T11:27:16;15.10;99.90
41904;DHT22;27586;51.124;4.182;2023-08-06T11:29:43;15.20;99.90
41904;DHT22;27586;51.124;4.182;2023-08-06T11:32:10;15.30;99.90
41904;DHT22;27586;51.124;4.182;2023-08-06T11:34:36;15.40;99.90
41904;DHT22;27586;51.124;4.182;2023-08-06T11:37:03;15.50;99.90
41904;DHT22;27586;51.124;4.182;2023-08-06T11:39:35;15.60;99.90
41904;DHT22;27586;51.124;4.182;2023-08-06T11:42:03;15.70;99.90
41904;DHT22;27586;51.124;4.182;2023-08-06T11:44:31;15.70;99.90
41904;DHT22;27586;51.124;4.182;2023-08-06T11:47:00;15.70;99.90
41904;DHT22;27586;51.124;4.182;2023-08-06T11:49:46;15.60;99.90
41904;DHT22;27586;51.124;4.182;2023-08-06T11:52:20;15.50;99.90
41904;DHT22;27586;51.124;4.182;2023-08-06T11:55:00;15.50;99.90
41904;DHT22;27586;51.124;4.182;2023-08-06T11:57:28;15.50;99.90
41904;DHT22;27586;51.124;4.182;2023-08-06T11:59:54;15.50;99.90
41904;DHT22;27586;51.124;4.182;2023-08-06T12:02:21;15.50;99.90
41904;DHT22;27586;51.124;4.182;2023-08-06T12:05:03;15.40;99.90
41904;DHT22;27586;51.124;4.182;2023-08-06T12:07:35;15.30;99.90
41904;DHT22;27586;51.124;4.182;2023-08-06T12:10:01;15.30;99.90
41904;DHT22;27586;51.124;4.182;2023-08-06T12:12:27;15.20;99.90
41904;DHT22;27586;51.124;4.182;2023-08-06T12:14:54;15.20;99.90
41904;DHT22;27586;51.124;4.182;2023-08-06T12:17:20;15.20;99.90
41904;DHT22;27586;51.124;4.182;2023-08-06T12:19:46;15.30;99.90
41904;DHT22;27586;51.124;4.182;2023-08-06T12:22:13;15.30;99.90
41904;DHT22;27586;51.124;4.182;2023-08-06T12:24:42;15.40;99.90
41904;DHT22;27586;51.124;4.182;2023-08-06T12:27:09;15.40;99.90
41904;DHT22;27586;51.124;4.182;2023-08-06T12:29:35;15.30;99.90
41904;DHT22;27586;51.124;4.182;2023-08-06T12:32:01;15.30;99.90
41904;DHT22;27586;51.124;4.182;2023-08-06T12:34:27;15.30;99.90
41904;DHT22;27586;51.124;4.182;2023-08-06T12:36:53;15.20;99.90
41904;DHT22;27586;51.124;4.182;2023-08-06T12:39:18;15.20;99.90
41904;DHT22;27586;51.124;4.182;2023-08-06T12:41:44;15.20;99.90
41904;DHT22;27586;51.124;4.182;2023-08-06T12:44:11;15.30;99.90
41904;DHT22;27586;51.124;4.182;2023-08-06T12:46:37;15.30;99.90
41904;DHT22;27586;51.124;4.182;2023-08-06T12:49:03;15.20;99.90
41904;DHT22;27586;51.124;4.182;2023-08-06T12:51:29;15.20;99.90
41904;DHT22;27586;51.124;4.182;2023-08-06T12:53:54;15.20;99.90
41904;DHT22;27586;51.124;4.182;2023-08-06T12:56:20;15.30;99.90
41904;DHT22;27586;51.124;4.182;2023-08-06T12:58:46;15.20;99.90
41904;DHT22;27586;51.124;4.182;2023-08-06T13:01:11;15.30;99.90
41904;DHT22;27586;51.124;4.182;2023-08-06T13:03:37;15.30;99.90
41904;DHT22;27586;51.124;4.182;2023-08-06T13:06:03;15.20;99.90
41904;DHT22;27586;51.124;4.182;2023-08-06T13:08:28;15.20;99.90
41904;DHT22;27586;51.124;4.182;2023-08-06T13:10:54;15.20;99.90
41904;DHT22;27586;51.124;4.182;2023-08-06T13:13:20;15.10;99.90
41904;DHT22;27586;51.124;4.182;2023-08-06T13:15:45;15.10;99.90
41904;DHT22;27586;51.124;4.182;2023-08-06T13:18:11;15.10;99.90
41904;DHT22;27586;51.124;4.182;2023-08-06T13:20:38;15.10;99.90
41904;DHT22;27586;51.124;4.182;2023-08-06T13:23:07;15.10;99.90
41904;DHT22;27586;51.124;4.182;2023-08-06T13:25:32;15.00;99.90
41904;DHT22;27586;51.124;4.182;2023-08-06T13:28:02;14.90;99.90
41904;DHT22;27586;51.124;4.182;2023-08-06T13:30:28;14.90;99.90
41904;DHT22;27586;51.124;4.182;2023-08-06T13:32:54;14.90;99.90
41904;DHT22;27586;51.124;4.182;2023-08-06T13:35:22;14.80;99.90
41904;DHT22;27586;51.124;4.182;2023-08-06T13:37:48;14.80;99.90
41904;DHT22;27586;51.124;4.182;2023-08-06T13:40:14;14.80;99.90
41904;DHT22;27586;51.124;4.182;2023-08-06T13:42:40;14.90;99.90
41904;DHT22;27586;51.124;4.182;2023-08-06T13:45:06;14.80;99.90
41904;DHT22;27586;51.124;4.182;2023-08-06T13:47:32;14.90;99.90
41904;DHT22;27586;51.124;4.182;2023-08-06T13:49:58;14.90;99.90
41904;DHT22;27586;51.124;4.182;2023-08-06T13:52:26;14.90;99.90
41904;DHT22;27586;51.124;4.182;2023-08-06T13:54:52;14.80;99.90
41904;DHT22;27586;51.124;4.182;2023-08-06T13:57:17;14.90;99.90
41904;DHT22;27586;51.124;4.182;2023-08-06T13:59:43;14.80;99.90
41904;DHT22;27586;51.124;4.182;2023-08-06T14:02:09;14.80;99.90
41904;DHT22;27586;51.124;4.182;2023-08-06T14:04:35;14.80;99.90
41904;DHT22;27586;51.124;4.182;2023-08-06T14:07:03;14.90;99.90
41904;DHT22;27586;51.124;4.182;2023-08-06T14:09:28;14.90;99.90
41904;DHT22;27586;51.124;4.182;2023-08-06T14:11:54;15.00;99.90
41904;DHT22;27586;51.124;4.182;2023-08-06T14:14:20;15.00;99.90
41904;DHT22;27586;51.124;4.182;2023-08-06T14:16:51;15.00;99.90
41904;DHT22;27586;51.124;4.182;2023-08-06T14:19:17;14.90;99.90
41904;DHT22;27586;51.124;4.182;2023-08-06T14:21:43;14.80;99.90
41904;DHT22;27586;51.124;4.182;2023-08-06T14:24:08;14.70;99.90
41904;DHT22;27586;51.124;4.182;2023-08-06T14:26:34;14.60;99.90
41904;DHT22;27586;51.124;4.182;2023-08-06T14:29:00;14.60;99.90
41904;DHT22;27586;51.124;4.182;2023-08-06T14:31:26;14.70;99.90
41904;DHT22;27586;51.124;4.182;2023-08-06T14:33:53;14.80;99.90
41904;DHT22;27586;51.124;4.182;2023-08-06T14:36:19;14.70;99.90
41904;DHT22;27586;51.124;4.182;2023-08-06T14:38:45;14.70;99.90
41904;DHT22;27586;51.124;4.182;2023-08-06T14:41:11;14.80;99.90
41904;DHT22;27586;51.124;4.182;2023-08-06T14:43:36;14.70;99.90
41904;DHT22;27586;51.124;4.182;2023-08-06T14:46:02;14.70;99.90
41904;DHT22;27586;51.124;4.182;2023-08-06T14:48:30;14.80;99.90
41904;DHT22;27586;51.124;4.182;2023-08-06T14:50:56;14.60;99.90
41904;DHT22;27586;51.124;4.182;2023-08-06T14:53:22;14.70;99.90
41904;DHT22;27586;51.124;4.182;2023-08-06T14:55:48;14.70;99.90
41904;DHT22;27586;51.124;4.182;2023-08-06T14:58:13;14.60;99.90
41904;DHT22;27586;51.124;4.182;2023-08-06T15:00:39;14.80;99.90
41904;DHT22;27586;51.124;4.182;2023-08-06T15:03:05;14.80;99.90
41904;DHT22;27586;51.124;4.182;2023-08-06T15:05:30;14.90;99.90
41904;DHT22;27586;51.124;4.182;2023-08-06T15:07:56;14.80;99.90
41904;DHT22;27586;51.124;4.182;2023-08-06T15:10:21;14.80;99.90
41904;DHT22;27586;51.124;4.182;2023-08-06T15:12:48;14.90;99.90
41904;DHT22;27586;51.124;4.182;2023-08-06T15:15:14;14.80;99.90
41904;DHT22;27586;51.124;4.182;2023-08-06T15:17:40;14.90;99.90
41904;DHT22;27586;51.124;4.182;2023-08-06T15:20:06;14.90;99.90
41904;DHT22;27586;51.124;4.182;2023-08-06T15:22:32;15.00;99.90
41904;DHT22;27586;51.124;4.182;2023-08-06T15:24:59;15.10;99.90
41904;DHT22;27586;51.124;4.182;2023-08-06T15:27:25;15.10;99.90
41904;DHT22;27586;51.124;4.182;2023-08-06T15:29:51;15.10;99.90